createdAt,value
2023-05-07T00:00:37.906Z,101037.89
2023-05-07T00:03:06.181Z,101041.05
2023-05-07T00:05:33.907Z,101036.45
2023-05-07T00:08:01.782Z,101038.38
2023-05-07T00:10:30.085Z,101034.81
2023-05-07T00:12:58.143Z,101031.95
2023-05-07T00:15:25.681Z,101031.34
2023-05-07T00:17:53.358Z,101030.19
2023-05-07T00:20:21.137Z,101024.94
2023-05-07T00:22:48.722Z,101028.08
2023-05-07T00:25:16.557Z,101023.88
2023-05-07T00:27:44.486Z,101022.83
2023-05-07T00:30:12.709Z,101025.98
2023-05-07T00:32:40.637Z,101021.27
2023-05-07T00:35:09.297Z,101018.23
2023-05-07T00:37:38.269Z,101022.40
2023-05-07T00:40:07.961Z,101019.79
2023-05-07T00:42:36.131Z,101017.80
2023-05-07T00:45:04.208Z,101019.45
2023-05-07T00:47:32.850Z,101017.52
2023-05-07T00:50:00.766Z,101016.73
2023-05-07T00:52:28.487Z,101017.15
2023-05-07T00:54:56.070Z,101017.55
2023-05-07T00:57:28.242Z,101020.50
2023-05-07T00:59:56.006Z,101020.40
2023-05-07T01:02:23.566Z,101016.77
2023-05-07T01:04:51.571Z,101020.27
2023-05-07T01:07:20.438Z,101026.80
2023-05-07T01:09:48.204Z,101030.79
2023-05-07T01:12:16.053Z,101032.52
2023-05-07T01:14:43.818Z,101039.48
2023-05-07T01:17:11.647Z,101041.54
2023-05-07T01:19:39.401Z,101043.70
2023-05-07T01:22:15.365Z,101049.85
2023-05-07T01:24:49.534Z,101043.77
2023-05-07T01:27:17.339Z,101047.98
2023-05-07T01:29:44.921Z,101045.92
2023-05-07T01:32:12.540Z,101049.27
2023-05-07T01:34:40.044Z,101051.06
2023-05-07T01:37:07.696Z,101053.89
2023-05-07T01:39:38.518Z,101049.09
2023-05-07T01:42:06.132Z,101054.02
2023-05-07T01:44:33.767Z,101051.83
2023-05-07T01:47:03.499Z,101055.08
2023-05-07T01:49:31.587Z,101056.75
2023-05-07T01:51:59.645Z,101055.96
2023-05-07T01:54:31.294Z,101055.09
2023-05-07T01:56:58.999Z,101055.77
2023-05-07T01:59:26.522Z,101056.52
2023-05-07T02:01:54.068Z,101060.74
2023-05-07T02:04:21.985Z,101062.20
2023-05-07T02:06:49.563Z,101061.36
2023-05-07T02:09:18.757Z,101064.03
2023-05-07T02:11:48.614Z,101061.17
2023-05-07T02:14:16.100Z,101064.02
2023-05-07T02:16:43.675Z,101070.07
2023-05-07T02:19:13.048Z,101074.50
2023-05-07T02:21:40.640Z,101077.90
2023-05-07T02:24:08.351Z,101078.42
2023-05-07T02:26:35.733Z,101072.50
2023-05-07T02:29:03.136Z,101078.58
2023-05-07T02:31:31.258Z,101075.27
2023-05-07T02:33:58.938Z,101077.27
2023-05-07T02:36:27.448Z,101078.77
2023-05-07T02:39:01.075Z,101080.14
2023-05-07T02:41:29.070Z,101082.01
2023-05-07T02:43:56.455Z,101086.27
2023-05-07T02:46:24.423Z,101090.09
2023-05-07T02:48:58.275Z,101096.14
2023-05-07T02:51:26.704Z,101096.96
2023-05-07T02:53:55.862Z,101102.30
2023-05-07T02:56:23.351Z,101103.71
2023-05-07T02:58:51.079Z,101099.17
2023-05-07T03:01:18.925Z,101102.27
2023-05-07T03:03:56.358Z,101094.13
2023-05-07T03:06:24.099Z,101095.02
2023-05-07T03:08:51.493Z,101098.38
2023-05-07T03:11:19.279Z,101102.54
2023-05-07T03:13:46.913Z,101102.27
2023-05-07T03:16:14.786Z,101109.59
2023-05-07T03:18:42.559Z,101109.70
2023-05-07T03:21:10.212Z,101112.71
2023-05-07T03:23:37.735Z,101116.91
2023-05-07T03:26:05.650Z,101118.52
2023-05-07T03:28:33.918Z,101115.88
2023-05-07T03:31:03.447Z,101109.95
2023-05-07T03:33:34.070Z,101112.12
2023-05-07T03:36:02.298Z,101116.58
2023-05-07T03:38:30.505Z,101116.15
2023-05-07T03:40:58.814Z,101123.02
2023-05-07T03:43:26.745Z,101131.29
2023-05-07T03:46:01.234Z,101132.50
2023-05-07T03:48:29.294Z,101134.44
2023-05-07T03:50:58.483Z,101137.90
2023-05-07T03:53:26.337Z,101134.05
2023-05-07T03:55:53.570Z,101140.96
2023-05-07T03:58:21.989Z,101134.48
2023-05-07T04:00:50.333Z,101140.86
2023-05-07T04:03:23.986Z,101137.83
2023-05-07T04:05:52.118Z,101141.36
2023-05-07T04:08:20.225Z,101136.91
2023-05-07T04:10:49.101Z,101139.90
2023-05-07T04:13:16.789Z,101140.96
2023-05-07T04:15:44.524Z,101140.95
2023-05-07T04:18:14.135Z,101135.60
2023-05-07T04:20:42.954Z,101137.82
2023-05-07T04:23:12.446Z,101138.30
2023-05-07T04:25:40.889Z,101137.20
2023-05-07T04:28:13.210Z,101132.34
2023-05-07T04:30:41.833Z,101130.66
2023-05-07T04:33:09.508Z,101131.34
2023-05-07T04:35:38.476Z,101126.27
2023-05-07T04:38:06.181Z,101130.66
2023-05-07T04:40:33.876Z,101132.93
2023-05-07T04:43:02.024Z,101130.14
2023-05-07T04:45:33.002Z,101133.28
2023-05-07T04:48:01.669Z,101133.56
2023-05-07T04:50:35.886Z,101132.98
2023-05-07T04:53:03.992Z,101134.59
2023-05-07T04:55:32.251Z,101135.45
2023-05-07T04:58:02.154Z,101132.48
2023-05-07T05:00:29.934Z,101132.02
2023-05-07T05:02:58.049Z,101124.73
2023-05-07T05:05:26.137Z,101124.35
2023-05-07T05:07:54.383Z,101121.10
2023-05-07T05:10:24.490Z,101109.39
2023-05-07T05:12:52.439Z,101107.54
2023-05-07T05:15:21.021Z,101112.16
2023-05-07T05:17:48.443Z,101108.77
2023-05-07T05:20:16.574Z,101106.09
2023-05-07T05:22:44.466Z,101101.80
2023-05-07T05:25:13.058Z,101100.94
2023-05-07T05:27:41.143Z,101102.00
2023-05-07T05:30:10.140Z,101106.60
2023-05-07T05:32:38.653Z,101110.17
2023-05-07T05:35:06.959Z,101107.98
2023-05-07T05:37:35.139Z,101102.05
2023-05-07T05:40:03.218Z,101097.69
2023-05-07T05:42:31.461Z,101096.63
2023-05-07T05:44:59.362Z,101094.98
2023-05-07T05:47:27.732Z,101093.60
2023-05-07T05:49:56.139Z,101093.42
2023-05-07T05:52:24.726Z,101094.89
2023-05-07T05:54:52.201Z,101095.83
2023-05-07T05:57:20.217Z,101093.31
2023-05-07T05:59:48.062Z,101093.70
2023-05-07T06:02:15.719Z,101094.20
2023-05-07T06:04:43.937Z,101087.09
2023-05-07T06:07:13.267Z,101086.27
2023-05-07T06:09:40.666Z,101084.91
2023-05-07T06:12:08.216Z,101087.46
2023-05-07T06:14:37.645Z,101084.03
2023-05-07T06:17:06.028Z,101080.16
2023-05-07T06:19:33.820Z,101085.93
2023-05-07T06:22:02.570Z,101085.88
2023-05-07T06:24:30.386Z,101085.52
2023-05-07T06:26:59.166Z,101086.38
2023-05-07T06:29:27.736Z,101089.02
2023-05-07T06:31:55.642Z,101091.36
2023-05-07T06:34:23.393Z,101094.02
2023-05-07T06:36:51.598Z,101093.48
2023-05-07T06:39:29.768Z,101097.44
2023-05-07T06:41:57.219Z,101107.75
2023-05-07T06:44:28.332Z,101106.15
2023-05-07T06:47:25.187Z,101105.74
2023-05-07T06:49:54.447Z,101108.39
2023-05-07T06:52:23.283Z,101106.35
2023-05-07T06:54:51.417Z,101103.38
2023-05-07T06:57:21.002Z,101103.49
2023-05-07T06:59:48.376Z,101108.95
2023-05-07T07:02:17.693Z,101104.91
2023-05-07T07:04:46.383Z,101105.90
2023-05-07T07:07:14.795Z,101102.13
2023-05-07T07:09:42.994Z,101099.79
2023-05-07T07:12:11.630Z,101100.15
2023-05-07T07:14:40.845Z,101099.15
2023-05-07T07:17:08.838Z,101101.01
2023-05-07T07:19:36.758Z,101096.11
2023-05-07T07:22:04.442Z,101094.96
2023-05-07T07:24:32.456Z,101092.77
2023-05-07T07:27:02.241Z,101096.69
2023-05-07T07:29:30.908Z,101092.06
2023-05-07T07:31:58.660Z,101092.20
2023-05-07T07:34:26.736Z,101092.33
2023-05-07T07:36:54.378Z,101091.13
2023-05-07T07:39:21.958Z,101092.08
2023-05-07T07:41:51.266Z,101096.64
2023-05-07T07:44:19.238Z,101094.39
2023-05-07T07:46:51.469Z,101093.96
2023-05-07T07:49:19.792Z,101092.38
2023-05-07T07:51:47.994Z,101093.58
2023-05-07T07:54:15.556Z,101091.38
2023-05-07T07:56:43.485Z,101092.37
2023-05-07T07:59:11.358Z,101086.40
2023-05-07T08:01:40.566Z,101084.33
2023-05-07T08:04:08.676Z,101085.68
2023-05-07T08:06:39.065Z,101090.34
2023-05-07T08:09:07.033Z,101088.07
2023-05-07T08:11:36.005Z,101090.70
2023-05-07T08:14:04.133Z,101091.18
2023-05-07T08:16:32.149Z,101088.37
2023-05-07T08:19:00.536Z,101095.25
2023-05-07T08:21:28.662Z,101092.84
2023-05-07T08:23:56.242Z,101091.72
2023-05-07T08:26:24.715Z,101090.13
2023-05-07T08:28:53.126Z,101088.20
2023-05-07T08:31:20.917Z,101087.23
2023-05-07T08:33:48.823Z,101085.46
2023-05-07T08:36:16.424Z,101083.52
2023-05-07T08:38:46.365Z,101083.59
2023-05-07T08:41:16.972Z,101077.85
2023-05-07T08:43:51.167Z,101075.22
2023-05-07T08:46:21.008Z,101081.16
2023-05-07T08:48:50.957Z,101075.52
2023-05-07T08:51:21.849Z,101076.01
2023-05-07T08:53:50.604Z,101070.91
2023-05-07T08:56:23.117Z,101076.00
2023-05-07T08:58:52.009Z,101071.25
2023-05-07T09:01:19.866Z,101068.10
2023-05-07T09:03:50.341Z,101069.00
2023-05-07T09:06:18.255Z,101073.27
2023-05-07T09:08:54.319Z,101077.27
2023-05-07T09:11:25.808Z,101076.47
2023-05-07T09:13:56.813Z,101077.92
2023-05-07T09:16:25.815Z,101080.01
2023-05-07T09:18:54.481Z,101081.42
2023-05-07T09:21:23.836Z,101081.07
2023-05-07T09:23:52.696Z,101076.30
2023-05-07T09:26:24.658Z,101082.76
2023-05-07T09:28:52.660Z,101081.79
2023-05-07T09:31:21.749Z,101080.48
2023-05-07T09:33:50.469Z,101080.70
2023-05-07T09:36:18.631Z,101079.98
2023-05-07T09:38:46.234Z,101084.08
2023-05-07T09:41:14.223Z,101083.00
2023-05-07T09:43:57.603Z,101081.02
2023-05-07T09:46:31.324Z,101082.86
2023-05-07T09:49:00.104Z,101074.44
2023-05-07T09:51:38.206Z,101073.56
2023-05-07T09:54:05.767Z,101080.30
2023-05-07T09:56:34.639Z,101079.29
2023-05-07T09:59:02.999Z,101087.75
2023-05-07T10:01:32.374Z,101090.99
2023-05-07T10:04:00.232Z,101088.02
2023-05-07T10:06:27.948Z,101087.14
2023-05-07T10:08:56.255Z,101083.60
2023-05-07T10:11:24.267Z,101080.63
2023-05-07T10:13:53.280Z,101077.69
2023-05-07T10:16:21.918Z,101076.42
2023-05-07T10:18:50.788Z,101071.06
2023-05-07T10:21:22.178Z,101064.04
2023-05-07T10:24:26.077Z,101065.20
2023-05-07T10:26:54.411Z,101060.95
2023-05-07T10:29:28.326Z,101057.23
2023-05-07T10:31:58.520Z,101052.17
2023-05-07T10:34:33.757Z,101040.82
2023-05-07T10:37:01.291Z,101035.23
2023-05-07T10:39:29.869Z,101036.83
2023-05-07T10:41:58.316Z,101035.46
2023-05-07T10:44:29.868Z,101033.02
2023-05-07T10:47:10.388Z,101028.02
2023-05-07T10:49:42.452Z,101024.81
2023-05-07T10:52:17.874Z,101021.73
2023-05-07T10:55:25.943Z,101021.60
2023-05-07T10:58:31.184Z,101016.08
2023-05-07T11:01:42.950Z,101021.45
2023-05-07T11:04:18.201Z,101015.49
2023-05-07T11:07:09.058Z,101021.15
2023-05-07T11:09:59.082Z,101021.27
2023-05-07T11:12:39.548Z,101019.18
2023-05-07T11:15:16.380Z,101021.48
2023-05-07T11:17:57.741Z,101024.46
2023-05-07T11:20:48.590Z,101017.83
2023-05-07T11:23:39.105Z,101008.84
2023-05-07T11:26:19.053Z,101009.83
2023-05-07T11:28:47.357Z,101003.13
2023-05-07T11:31:17.228Z,101005.08
2023-05-07T11:33:45.917Z,101009.08
2023-05-07T11:36:15.617Z,101016.30
2023-05-07T11:38:47.676Z,101020.04
2023-05-07T11:41:16.999Z,101017.74
2023-05-07T11:43:57.914Z,101012.75
2023-05-07T11:46:25.661Z,101012.41
2023-05-07T11:48:53.151Z,101014.63
2023-05-07T11:51:21.969Z,101012.91
2023-05-07T11:53:50.129Z,101016.16
2023-05-07T11:56:18.679Z,101019.51
2023-05-07T11:58:47.323Z,101018.80
2023-05-07T12:01:15.762Z,101016.45
2023-05-07T12:03:44.771Z,101014.48
2023-05-07T12:06:13.500Z,101017.28
2023-05-07T12:08:42.339Z,101015.41
2023-05-07T12:11:29.990Z,101013.54
2023-05-07T12:13:59.421Z,101011.31
2023-05-07T12:16:28.288Z,101011.72
2023-05-07T12:18:56.142Z,101004.15
2023-05-07T12:21:24.231Z,101001.74
2023-05-07T12:23:51.925Z,100999.64
2023-05-07T12:26:21.926Z,100994.09
2023-05-07T12:28:50.634Z,100997.00
2023-05-07T12:31:18.172Z,100990.83
2023-05-07T12:33:46.177Z,100990.73
2023-05-07T12:36:13.787Z,100990.10
2023-05-07T12:38:43.968Z,100984.61
2023-05-07T12:41:13.351Z,100977.95
2023-05-07T12:43:41.102Z,100981.16
2023-05-07T12:46:09.088Z,100977.60
2023-05-07T12:48:38.488Z,100977.64
2023-05-07T12:51:06.827Z,100980.41
2023-05-07T12:53:34.612Z,100986.14
2023-05-07T12:56:02.191Z,100985.64
2023-05-07T12:58:31.218Z,100991.48
2023-05-07T13:01:01.395Z,100983.27
2023-05-07T13:03:31.042Z,100980.14
2023-05-07T13:06:00.647Z,100981.74
2023-05-07T13:08:31.165Z,100981.48
2023-05-07T13:11:05.333Z,100980.65
2023-05-07T13:13:34.951Z,100981.08
2023-05-07T13:16:03.014Z,100977.60
2023-05-07T13:18:31.326Z,100980.43
2023-05-07T13:20:59.317Z,100982.54
2023-05-07T13:23:27.150Z,100982.27
2023-05-07T13:25:57.598Z,100984.55
2023-05-07T13:28:25.758Z,100980.39
2023-05-07T13:30:53.723Z,100979.05
2023-05-07T13:33:21.503Z,100987.08
2023-05-07T13:35:49.058Z,100989.27
2023-05-07T13:38:17.329Z,100990.31
2023-05-07T13:40:44.944Z,100988.80
2023-05-07T13:43:12.514Z,100985.63
2023-05-07T13:45:40.126Z,100983.85
2023-05-07T13:48:07.875Z,100983.00
2023-05-07T13:50:36.387Z,100980.16
2023-05-07T13:53:04.369Z,100984.33
2023-05-07T13:55:32.743Z,100984.48
2023-05-07T13:58:01.678Z,100984.16
2023-05-07T14:00:29.411Z,100981.87
2023-05-07T14:02:57.229Z,100983.04
2023-05-07T14:05:25.440Z,100984.73
2023-05-07T14:07:53.121Z,100981.09
2023-05-07T14:10:20.827Z,100981.03
2023-05-07T14:12:48.497Z,100974.55
2023-05-07T14:15:16.810Z,100970.63
2023-05-07T14:17:44.687Z,100970.65
2023-05-07T14:20:13.174Z,100967.52
2023-05-07T14:22:41.128Z,100964.86
2023-05-07T14:25:10.168Z,100962.70
2023-05-07T14:27:38.423Z,100964.35
2023-05-07T14:30:06.730Z,100957.41
2023-05-07T14:32:36.527Z,100960.79
2023-05-07T14:35:04.492Z,100966.18
2023-05-07T14:37:32.493Z,100967.48
2023-05-07T14:40:00.534Z,100964.15
2023-05-07T14:42:28.148Z,100962.31
2023-05-07T14:44:55.759Z,100963.98
2023-05-07T14:47:23.504Z,100969.51
2023-05-07T14:49:50.983Z,100968.98
2023-05-07T14:52:18.543Z,100966.39
2023-05-07T14:54:46.032Z,100966.80
2023-05-07T14:57:15.508Z,100965.84
2023-05-07T14:59:43.080Z,100962.79
2023-05-07T15:02:11.921Z,100960.11
2023-05-07T15:04:46.369Z,100964.33
2023-05-07T15:07:17.232Z,100959.77
2023-05-07T15:09:45.386Z,100957.73
2023-05-07T15:12:13.119Z,100958.39
2023-05-07T15:14:40.881Z,100966.71
2023-05-07T15:17:08.618Z,100968.50
2023-05-07T15:19:37.157Z,100966.32
2023-05-07T15:22:04.678Z,100973.05
2023-05-07T15:24:32.830Z,100972.83
2023-05-07T15:27:01.770Z,100974.42
2023-05-07T15:29:29.808Z,100980.64
2023-05-07T15:31:58.537Z,100979.80
2023-05-07T15:34:26.369Z,100985.75
2023-05-07T15:36:53.876Z,100979.35
2023-05-07T15:39:23.572Z,100979.04
2023-05-07T15:41:52.698Z,100978.85
2023-05-07T15:44:20.139Z,100977.41
2023-05-07T15:46:47.858Z,100980.11
2023-05-07T15:49:15.500Z,100981.55
2023-05-07T15:51:43.538Z,100980.53
2023-05-07T15:54:11.260Z,100980.20
2023-05-07T15:56:39.082Z,100982.54
2023-05-07T15:59:07.361Z,100981.96
2023-05-07T16:01:34.791Z,100979.52
2023-05-07T16:04:03.354Z,100982.89
2023-05-07T16:06:31.430Z,100977.92
2023-05-07T16:08:59.355Z,100978.08
2023-05-07T16:11:30.070Z,100982.72
2023-05-07T16:14:00.625Z,100985.21
2023-05-07T16:16:31.212Z,100990.24
2023-05-07T16:18:58.607Z,100994.05
2023-05-07T16:21:26.361Z,100998.41
2023-05-07T16:23:54.105Z,100996.79
2023-05-07T16:26:21.720Z,100996.55
2023-05-07T16:28:49.729Z,100996.02
2023-05-07T16:31:18.577Z,101004.65
2023-05-07T16:33:46.197Z,101009.21
2023-05-07T16:36:13.743Z,101006.59
2023-05-07T16:38:41.213Z,101011.06
2023-05-07T16:41:08.797Z,101007.30
2023-05-07T16:43:36.512Z,101008.34
2023-05-07T16:46:04.436Z,101005.05
2023-05-07T16:48:32.787Z,101006.00
2023-05-07T16:51:00.581Z,101012.45
2023-05-07T16:53:28.420Z,101011.53
2023-05-07T16:55:56.475Z,101010.86
2023-05-07T16:58:24.503Z,101011.23
2023-05-07T17:00:52.196Z,101011.59
2023-05-07T17:03:19.943Z,101008.71
2023-05-07T17:05:47.588Z,101008.50
2023-05-07T17:08:15.560Z,101009.20
2023-05-07T17:10:42.969Z,101013.83
2023-05-07T17:13:10.641Z,101014.79
2023-05-07T17:15:40.395Z,101017.00
2023-05-07T17:18:08.288Z,101014.75
2023-05-07T17:20:36.123Z,101022.04
2023-05-07T17:23:03.688Z,101020.32
2023-05-07T17:25:32.310Z,101019.11
2023-05-07T17:27:59.820Z,101015.53
2023-05-07T17:30:27.406Z,101017.34
2023-05-07T17:33:03.749Z,101021.77
2023-05-07T17:35:37.056Z,101027.55
2023-05-07T17:38:04.553Z,101033.27
2023-05-07T17:40:32.030Z,101031.62
2023-05-07T17:42:59.754Z,101036.70
2023-05-07T17:45:27.516Z,101037.40
2023-05-07T17:47:55.003Z,101035.02
2023-05-07T17:50:22.593Z,101036.24
2023-05-07T17:52:50.054Z,101036.47
2023-05-07T17:55:17.825Z,101041.10
2023-05-07T17:57:45.570Z,101040.65
2023-05-07T18:00:13.988Z,101040.70
2023-05-07T18:02:42.097Z,101040.45
2023-05-07T18:05:10.053Z,101043.27
2023-05-07T18:07:37.859Z,101042.05
2023-05-07T18:10:06.206Z,101042.84
2023-05-07T18:12:34.123Z,101044.36
2023-05-07T18:15:01.886Z,101047.69
2023-05-07T18:17:29.825Z,101055.93
2023-05-07T18:19:57.595Z,101055.60
2023-05-07T18:22:25.152Z,101060.77
2023-05-07T18:24:52.629Z,101063.07
2023-05-07T18:27:20.711Z,101062.28
2023-05-07T18:29:48.168Z,101062.36
2023-05-07T18:32:16.152Z,101060.93
2023-05-07T18:34:43.903Z,101063.27
2023-05-07T18:37:11.548Z,101063.02
2023-05-07T18:39:39.163Z,101062.34
2023-05-07T18:42:08.093Z,101064.82
2023-05-07T18:44:38.827Z,101067.52
2023-05-07T18:47:06.380Z,101072.05
2023-05-07T18:49:34.346Z,101073.50
2023-05-07T18:52:02.046Z,101075.52
2023-05-07T18:54:29.966Z,101073.71
2023-05-07T18:56:57.707Z,101074.19
2023-05-07T18:59:25.114Z,101074.92
2023-05-07T19:01:52.914Z,101072.84
2023-05-07T19:04:20.752Z,101073.05
2023-05-07T19:06:48.519Z,101071.99
2023-05-07T19:09:16.082Z,101073.25
2023-05-07T19:11:43.631Z,101077.89
2023-05-07T19:14:11.081Z,101078.96
2023-05-07T19:16:38.602Z,101080.70
2023-05-07T19:19:06.536Z,101084.38
2023-05-07T19:21:34.024Z,101087.16
2023-05-07T19:24:01.495Z,101081.44
2023-05-07T19:26:29.498Z,101081.15
2023-05-07T19:29:12.460Z,101081.48
2023-05-07T19:31:45.212Z,101080.52
2023-05-07T19:34:15.706Z,101079.80
2023-05-07T19:36:43.134Z,101082.56
2023-05-07T19:39:11.332Z,101083.58
2023-05-07T19:41:39.057Z,101083.73
2023-05-07T19:44:06.367Z,101083.60
2023-05-07T19:46:33.787Z,101086.05
2023-05-07T19:49:01.472Z,101085.30
2023-05-07T19:51:32.126Z,101089.84
2023-05-07T19:53:59.900Z,101085.79
2023-05-07T19:56:27.411Z,101086.43
2023-05-07T19:58:55.538Z,101086.54
2023-05-07T20:01:23.064Z,101082.21
2023-05-07T20:04:11.276Z,101084.03
2023-05-07T20:06:38.882Z,101086.67
2023-05-07T20:09:09.866Z,101086.27
2023-05-07T20:11:37.299Z,101084.46
2023-05-07T20:14:05.968Z,101087.20
2023-05-07T20:16:33.810Z,101085.80
2023-05-07T20:19:01.580Z,101088.95
2023-05-07T20:21:29.625Z,101089.63
2023-05-07T20:23:57.749Z,101089.87
2023-05-07T20:26:26.499Z,101090.27
2023-05-07T20:28:53.918Z,101089.11
2023-05-07T20:31:21.529Z,101091.52
2023-05-07T20:33:49.174Z,101093.64
2023-05-07T20:36:16.818Z,101095.70
2023-05-07T20:38:44.482Z,101097.05
2023-05-07T20:41:14.799Z,101097.83
2023-05-07T20:43:42.151Z,101103.94
2023-05-07T20:46:09.611Z,101106.10
2023-05-07T20:48:37.669Z,101108.58
2023-05-07T20:51:05.118Z,101112.27
2023-05-07T20:53:32.700Z,101114.90
2023-05-07T20:56:00.385Z,101116.05
2023-05-07T20:58:28.068Z,101112.96
2023-05-07T21:00:55.748Z,101111.17
2023-05-07T21:03:23.576Z,101115.45
2023-05-07T21:05:55.507Z,101116.20
2023-05-07T21:08:23.298Z,101118.30
2023-05-07T21:10:52.260Z,101114.10
2023-05-07T21:13:20.315Z,101113.85
2023-05-07T21:15:47.872Z,101114.80
2023-05-07T21:18:16.190Z,101118.77
2023-05-07T21:20:43.605Z,101116.15
2023-05-07T21:23:11.516Z,101119.86
2023-05-07T21:25:39.246Z,101122.80
2023-05-07T21:28:08.212Z,101127.55
2023-05-07T21:30:36.342Z,101127.55
2023-05-07T21:33:06.089Z,101127.02
2023-05-07T21:35:35.963Z,101128.10
2023-05-07T21:38:03.585Z,101130.33
2023-05-07T21:40:31.391Z,101130.75
2023-05-07T21:43:00.185Z,101134.74
2023-05-07T21:45:27.820Z,101133.54
2023-05-07T21:47:55.994Z,101133.16
2023-05-07T21:50:23.690Z,101133.00
2023-05-07T21:52:51.143Z,101136.84
2023-05-07T21:55:19.205Z,101133.05
2023-05-07T21:58:01.279Z,101131.20
2023-05-07T22:00:32.432Z,101134.05
2023-05-07T22:02:59.832Z,101127.82
2023-05-07T22:05:27.541Z,101128.06
2023-05-07T22:07:55.595Z,101127.65
2023-05-07T22:10:23.811Z,101130.67
2023-05-07T22:12:51.401Z,101125.02
2023-05-07T22:15:19.092Z,101124.44
2023-05-07T22:17:46.579Z,101127.98
2023-05-07T22:20:14.251Z,101127.11
2023-05-07T22:22:47.857Z,101128.86
2023-05-07T22:25:17.045Z,101130.48
2023-05-07T22:27:44.634Z,101127.05
2023-05-07T22:30:12.566Z,101132.77
2023-05-07T22:32:42.179Z,101132.27
2023-05-07T22:35:10.469Z,101128.52
2023-05-07T22:37:38.093Z,101131.29
2023-05-07T22:40:06.761Z,101131.27
2023-05-07T22:42:34.804Z,101135.29
2023-05-07T22:45:02.924Z,101133.65
2023-05-07T22:47:30.997Z,101128.39
2023-05-07T22:49:58.876Z,101126.74
2023-05-07T22:52:26.789Z,101127.66
2023-05-07T22:54:54.473Z,101127.31
2023-05-07T22:57:22.318Z,101127.88
2023-05-07T22:59:56.261Z,101128.71
2023-05-07T23:02:23.988Z,101126.40
2023-05-07T23:04:51.627Z,101126.66
2023-05-07T23:07:19.169Z,101124.11
2023-05-07T23:09:46.650Z,101125.05
2023-05-07T23:12:14.053Z,101121.42
2023-05-07T23:14:41.786Z,101122.20
2023-05-07T23:17:09.946Z,101122.06
2023-05-07T23:19:37.999Z,101122.44
2023-05-07T23:22:06.128Z,101118.05
2023-05-07T23:24:34.545Z,101119.23
2023-05-07T23:27:05.777Z,101121.03
2023-05-07T23:29:33.628Z,101120.22
2023-05-07T23:32:01.263Z,101119.89
2023-05-07T23:34:29.232Z,101120.88
2023-05-07T23:36:56.959Z,101122.16
2023-05-07T23:39:24.904Z,101121.86
2023-05-07T23:41:52.399Z,101121.52
2023-05-07T23:44:20.327Z,101124.54
2023-05-07T23:46:48.384Z,101123.45
2023-05-07T23:49:16.077Z,101126.92
2023-05-07T23:51:43.883Z,101124.49
2023-05-07T23:54:11.489Z,101127.39
2023-05-07T23:56:39.044Z,101131.73
2023-05-07T23:59:06.646Z,101130.83
